Time;durP1;ratioP1;P1;durP2;ratioP2;P2;SDS_P1;SDS_P2;PMS_P1;PMS_P2;Temp;Humidity;BMP_temperature;BMP_pressure;BME280_temperature;BME280_humidity;BME280_pressure;Samples;Min_cycle;Max_cycle;Signal;HPM_P1;HPM_P2
2022/03/17 00:01:46;;;;;;;32.30;20.35;;;10.00;99.90;;;;;;5007841;28;20085;-64
2022/03/17 00:04:13;;;;;;;30.30;19.73;;;10.00;99.90;;;;;;4974425;28;20078;-64
2022/03/17 00:06:38;;;;;;;33.03;20.88;;;10.00;99.90;;;;;;4974259;28;20057;-64
2022/03/17 00:09:06;;;;;;;35.92;19.75;;;9.90;99.90;;;;;;4974018;28;20035;-64
2022/03/17 00:11:32;;;;;;;29.30;19.48;;;9.90;99.90;;;;;;4991382;28;20026;-64
2022/03/17 00:13:58;;;;;;;32.88;20.13;;;;;;;;;;4990685;28;20598;-64
2022/03/17 00:16:24;;;;;;;31.17;19.25;;;;;;;;;;4991553;28;20097;-64
2022/03/17 00:18:51;;;;;;;34.83;20.05;;;;;;;;;;4991422;28;20038;-64
2022/03/17 00:21:17;;;;;;;36.00;20.05;;;;;;;;;;4991498;28;20022;-63
2022/03/17 00:23:42;;;;;;;32.20;20.52;;;;;;;;;;4974153;28;20117;-64
2022/03/17 00:26:09;;;;;;;34.50;19.38;;;;;;;;;;4971732;28;20031;-64
2022/03/17 00:28:35;;;;;;;31.42;19.52;;;;;;;;;;4969851;28;20117;-64
2022/03/17 00:31:01;;;;;;;32.22;20.10;;;;;;;;;;4992950;28;20635;-64
2022/03/17 00:33:27;;;;;;;30.98;19.88;;;;;;;;;;4993906;28;20022;-64
2022/03/17 00:35:53;;;;;;;30.25;19.52;;;;;;;;;;5008473;22;20060;-60
2022/03/17 00:38:19;;;;;;;32.00;18.95;;;;;;;;;;4975083;28;20059;-60
2022/03/17 00:40:46;;;;;;;30.52;19.63;;;;;;;;;;4992315;28;20074;-60
2022/03/17 00:43:13;;;;;;;34.25;20.33;;;;;;;;;;4992802;28;20033;-62
2022/03/17 00:45:40;;;;;;;34.90;20.08;;;;;;;;;;4974783;28;20402;-60
2022/03/17 00:48:06;;;;;;;30.85;19.10;;;;;;;;;;4992603;28;20019;-60
2022/03/17 00:50:33;;;;;;;32.78;20.05;;;;;;;;;;4992294;28;20031;-59
2022/03/17 00:53:02;;;;;;;33.35;19.73;;;;;;;;;;4992513;28;20057;-62
2022/03/17 00:55:28;;;;;;;33.22;19.95;;;;;;;;;;4995364;28;20479;-61
2022/03/17 00:57:54;;;;;;;40.03;20.88;;;;;;;;;;4974813;28;20031;-60
2022/03/17 01:00:21;;;;;;;35.80;21.38;;;;;;;;;;4992120;28;20034;-60
2022/03/17 01:02:48;;;;;;;32.75;19.95;;;;;;;;;;4992360;28;20026;-62
2022/03/17 01:05:14;;;;;;;32.40;21.02;;;;;;;;;;4974827;28;20065;-59
2022/03/17 01:07:40;;;;;;;34.35;20.38;;;;;;;;;;4992264;28;20062;-60
2022/03/17 01:10:07;;;;;;;32.03;20.42;;;;;;;;;;4991785;28;20076;-60
2022/03/17 01:12:34;;;;;;;31.25;20.08;;;;;;;;;;4992109;28;20022;-60
2022/03/17 01:15:00;;;;;;;31.40;19.27;;;;;;;;;;4992060;28;20022;-57
2022/03/17 01:17:26;;;;;;;30.52;18.75;;;;;;;;;;4991900;28;20041;-59
2022/03/17 01:19:52;;;;;;;34.25;21.17;;;;;;;;;;4974571;28;20050;-60
2022/03/17 01:22:18;;;;;;;34.03;19.65;;;;;;;;;;4992040;28;20398;-61
2022/03/17 01:24:46;;;;;;;32.33;19.95;;;;;;;;;;4991874;28;20494;-62
2022/03/17 01:27:12;;;;;;;;;;;;;;;;;;4974919;28;20521;-60
2022/03/17 01:29:41;;;;;;;30.98;19.33;;;;;;;;;;4991822;28;19906;-59
2022/03/17 01:32:07;;;;;;;;;;;;;;;;;;4992475;28;20026;-61
2022/03/17 01:34:33;;;;;;;29.27;19.15;;;;;;;;;;4974089;28;20021;-61
2022/03/17 01:36:59;;;;;;;33.22;20.30;;;;;;;;;;4991479;28;20030;-61
2022/03/17 01:39:25;;;;;;;31.35;19.52;;;;;;;;;;4973665;28;20474;-61
2022/03/17 01:41:51;;;;;;;34.15;20.17;;;;;;;;;;4991381;28;20026;-62
2022/03/17 01:44:17;;;;;;;32.65;20.85;;;;;;;;;;4991472;28;20105;-60
2022/03/17 01:49:27;;;;;;;31.58;20.25;;;;;;;;;;4991371;28;20092;-62
2022/03/17 01:51:53;;;;;;;30.67;20.13;;;;;;;;;;4991194;28;20026;-59
2022/03/17 01:54:19;;;;;;;36.50;20.35;;;;;;;;;;4991645;28;20026;-60
2022/03/17 01:56:46;;;;;;;31.23;18.90;;;;;;;;;;4991342;28;20080;-60
2022/03/17 01:59:13;;;;;;;32.20;19.80;;;;;;;;;;4973600;28;20023;-62
2022/03/17 02:01:39;;;;;;;30.40;19.67;;;;;;;;;;4991353;28;20061;-60
2022/03/17 02:04:05;;;;;;;30.13;18.85;;;;;;;;;;4973853;28;20450;-62
2022/03/17 02:06:32;;;;;;;29.92;18.50;;;;;;;;;;4991212;28;20019;-61
2022/03/17 02:08:58;;;;;;;31.55;19.77;;;;;;;;;;4991282;28;20492;-59
2022/03/17 02:14:09;;;;;;;29.35;18.88;;;;;;;;;;4991149;28;20065;-60
2022/03/17 02:16:35;;;;;;;32.47;19.40;;;;;;;;;;4991268;28;20058;-59
2022/03/17 02:19:01;;;;;;;31.88;19.98;;;;;;;;;;4991021;28;20031;-60
2022/03/17 02:21:29;;;;;;;31.33;19.33;;;;;;;;;;4991492;28;20097;-59
2022/03/17 02:26:40;;;;;;;29.85;18.70;;;;;;;;;;4992543;28;20034;-60
2022/03/17 02:29:06;;;;;;;35.17;21.77;;;;;;;;;;4992077;28;20026;-57
2022/03/17 02:31:34;;;;;;;34.63;19.88;;;;;;;;;;4992089;28;20039;-63
2022/03/17 02:34:00;;;;;;;36.63;21.48;;;9.90;99.90;;;;;;4992400;28;20407;-62
2022/03/17 02:36:26;;;;;;;30.77;18.60;;;9.70;99.90;;;;;;4991977;28;20042;-61
2022/03/17 02:38:51;;;;;;;32.38;20.00;;;9.70;99.90;;;;;;4974213;28;20078;-62
2022/03/17 02:41:22;;;;;;;32.83;20.33;;;9.70;99.90;;;;;;4991290;28;20030;-62
2022/03/17 02:43:56;;;;;;;33.17;20.55;;;9.70;99.90;;;;;;4992164;28;20050;-60
2022/03/17 02:46:22;;;;;;;33.08;20.13;;;9.70;99.90;;;;;;4991424;28;20428;-59
2022/03/17 02:48:47;;;;;;;33.92;20.52;;;9.80;99.90;;;;;;4991069;28;20034;-61
2022/03/17 02:51:13;;;;;;;36.42;21.05;;;9.70;99.90;;;;;;4974820;28;20031;-63
2022/03/17 02:53:39;;;;;;;35.85;20.70;;;9.80;99.90;;;;;;4994723;28;20121;-61
2022/03/17 02:56:04;;;;;;;32.60;20.17;;;9.80;99.90;;;;;;4994399;28;20066;-59
2022/03/17 02:58:31;;;;;;;36.08;21.95;;;9.80;99.90;;;;;;4994476;28;20045;-59
2022/03/17 03:00:58;;;;;;;34.70;20.60;;;9.70;99.90;;;;;;4994417;28;20026;-60
2022/03/17 03:03:23;;;;;;;31.20;20.02;;;9.80;99.90;;;;;;4976985;28;20022;-58
2022/03/17 03:05:49;;;;;;;37.22;23.80;;;9.70;99.90;;;;;;4994266;28;20027;-59
2022/03/17 03:08:15;;;;;;;38.13;21.63;;;9.70;99.90;;;;;;4994538;28;20022;-57
2022/03/17 03:10:41;;;;;;;32.67;19.48;;;9.70;99.90;;;;;;4994313;28;20441;-59
2022/03/17 03:13:07;;;;;;;34.90;20.15;;;9.70;99.90;;;;;;4976525;28;20481;-58
2022/03/17 03:15:33;;;;;;;35.47;19.88;;;9.70;99.90;;;;;;4993863;28;20065;-61
2022/03/17 03:17:59;;;;;;;33.80;20.15;;;9.80;99.90;;;;;;4976760;28;20037;-59
2022/03/17 03:20:25;;;;;;;33.00;20.50;;;9.90;99.90;;;;;;4976547;28;20014;-58
2022/03/17 03:22:51;;;;;;;35.33;22.10;;;9.90;99.90;;;;;;4994347;28;20169;-58
2022/03/17 03:25:17;;;;;;;31.23;21.13;;;9.90;99.90;;;;;;4976808;28;20033;-60
2022/03/17 03:27:43;;;;;;;34.25;22.55;;;10.00;99.90;;;;;;4993962;28;20046;-58
2022/03/17 03:30:11;;;;;;;33.40;21.23;;;10.00;99.90;;;;;;4993734;28;20693;-58
2022/03/17 03:32:39;;;;;;;31.85;20.73;;;10.10;99.90;;;;;;4976241;28;20117;-58
2022/03/17 03:37:22;;;;;;;32.05;20.30;;;10.10;99.90;;;;;;4993406;28;20499;-57
2022/03/17 03:37:51;;;;;;;33.92;20.80;;;10.10;99.90;;;;;;4993439;28;20026;-57
2022/03/17 03:40:16;;;;;;;32.20;20.55;;;10.20;99.90;;;;;;4993331;28;20471;-58
2022/03/17 03:42:42;;;;;;;31.08;19.63;;;10.20;99.90;;;;;;4976090;28;20558;-59
2022/03/17 03:45:08;;;;;;;32.58;21.35;;;10.30;99.90;;;;;;4993379;28;20030;-61
2022/03/17 03:47:33;;;;;;;30.58;19.55;;;10.30;99.90;;;;;;4993479;28;20066;-61
2022/03/17 03:49:59;;;;;;;30.92;19.60;;;10.30;99.90;;;;;;4975636;28;20050;-59
2022/03/17 03:52:24;;;;;;;31.17;20.27;;;10.30;99.90;;;;;;4993480;28;20498;-60
2022/03/17 03:54:50;;;;;;;35.40;21.48;;;10.30;99.90;;;;;;4993212;28;20073;-61
2022/03/17 03:57:16;;;;;;;29.98;20.70;;;10.40;99.90;;;;;;4993351;28;20022;-61
2022/03/17 03:59:42;;;;;;;31.40;21.60;;;10.40;99.90;;;;;;4992984;28;20479;-59
2022/03/17 04:02:10;;;;;;;34.40;21.73;;;10.40;99.90;;;;;;4975798;28;20473;-59
2022/03/17 04:04:39;;;;;;;32.70;21.60;;;10.50;99.90;;;;;;4992290;28;20062;-60
2022/03/17 04:07:08;;;;;;;31.20;21.08;;;10.50;99.90;;;;;;4993203;28;20065;-61
2022/03/17 04:09:38;;;;;;;32.33;22.73;;;10.50;99.90;;;;;;4975445;28;20084;-61
2022/03/17 04:12:04;;;;;;;34.20;21.75;;;10.50;99.90;;;;;;4975563;28;20026;-59
2022/03/17 04:14:31;;;;;;;30.85;20.20;;;10.50;99.90;;;;;;4975469;28;20023;-58
2022/03/17 04:16:57;;;;;;;32.05;21.05;;;10.50;99.90;;;;;;4993061;28;20402;-57
2022/03/17 04:19:23;;;;;;;29.98;20.67;;;10.60;99.90;;;;;;4992877;28;20034;-59
2022/03/17 04:21:49;;;;;;;32.00;19.98;;;10.60;99.90;;;;;;4992855;28;20033;-60
2022/03/17 04:24:15;;;;;;;34.17;21.70;;;10.60;99.90;;;;;;4992765;28;20041;-58
2022/03/17 04:26:41;;;;;;;32.97;22.23;;;10.60;99.90;;;;;;4992898;28;20026;-59
2022/03/17 04:29:09;;;;;;;34.03;21.42;;;10.60;99.90;;;;;;4992811;28;20034;-59
2022/03/17 04:31:36;;;;;;;30.15;20.35;;;10.60;99.90;;;;;;4975278;28;20609;-59
2022/03/17 04:34:02;;;;;;;32.22;21.00;;;10.60;99.90;;;;;;4992625;28;20023;-60
2022/03/17 04:36:27;;;;;;;37.60;22.73;;;10.60;99.90;;;;;;4992338;28;20038;-57
2022/03/17 04:38:53;;;;;;;35.15;22.33;;;10.60;99.90;;;;;;4992559;28;20034;-59
2022/03/17 04:41:19;;;;;;;33.47;21.25;;;10.60;99.90;;;;;;4992636;28;20390;-58
2022/03/17 04:43:45;;;;;;;32.78;22.77;;;10.60;99.90;;;;;;4992508;28;20045;-61
2022/03/17 04:46:11;;;;;;;33.13;21.17;;;10.80;99.90;;;;;;4992499;28;20046;-60
2022/03/17 04:48:37;;;;;;;32.55;21.23;;;10.80;99.90;;;;;;4992073;28;20602;-61
2022/03/17 04:51:05;;;;;;;32.97;22.20;;;10.90;99.90;;;;;;4992115;28;20033;-59
2022/03/17 04:53:32;;;;;;;33.03;22.60;;;11.00;99.90;;;;;;4992060;28;20033;-62
2022/03/17 04:56:01;;;;;;;33.75;22.92;;;11.00;99.90;;;;;;4974478;28;20025;-60
2022/03/17 04:58:28;;;;;;;33.17;20.65;;;11.00;99.90;;;;;;4992073;28;20033;-62
2022/03/17 05:00:55;;;;;;;31.98;22.75;;;11.00;99.90;;;;;;4991848;28;20053;-57
2022/03/17 05:03:21;;;;;;;35.15;22.23;;;11.00;99.90;;;;;;4974416;28;20431;-56
2022/03/17 05:05:47;;;;;;;36.60;22.10;;;11.00;99.90;;;;;;4974473;28;20034;-60
2022/03/17 05:08:13;;;;;;;33.47;21.80;;;11.10;99.90;;;;;;4991911;28;20382;-58
2022/03/17 05:10:40;;;;;;;32.53;22.35;;;11.10;99.90;;;;;;4991772;28;20026;-62
2022/03/17 05:13:07;;;;;;;31.73;20.75;;;11.10;99.90;;;;;;4991960;28;20557;-60
2022/03/17 05:15:34;;;;;;;35.05;22.58;;;11.10;99.90;;;;;;4990595;28;20105;-62
2022/03/17 05:17:59;;;;;;;35.03;22.38;;;11.10;99.90;;;;;;4991404;28;20034;-61
2022/03/17 05:20:26;;;;;;;30.63;21.17;;;11.20;99.90;;;;;;4991385;28;20030;-60
2022/03/17 05:22:52;;;;;;;36.10;22.73;;;11.20;99.90;;;;;;4974111;28;20022;-55
2022/03/17 05:25:18;;;;;;;33.85;21.33;;;11.20;99.90;;;;;;4991285;28;20054;-60
2022/03/17 05:27:45;;;;;;;33.60;21.23;;;11.20;99.90;;;;;;4991776;28;20408;-60
2022/03/17 05:30:16;;;;;;;31.67;21.27;;;11.30;99.90;;;;;;4991547;28;20090;-61
2022/03/17 05:32:43;;;;;;;32.65;21.45;;;11.30;99.90;;;;;;4991763;28;20027;-59
2022/03/17 05:35:10;;;;;;;33.67;22.25;;;11.30;99.90;;;;;;4991022;28;20034;-56
2022/03/17 05:37:36;;;;;;;36.25;23.45;;;11.30;99.90;;;;;;4991514;28;20058;-57
2022/03/17 05:40:06;;;;;;;33.28;23.83;;;11.20;99.90;;;;;;4973725;28;20407;-59
2022/03/17 05:42:33;;;;;;;36.30;25.23;;;11.20;99.90;;;;;;4991469;28;20034;-58
2022/03/17 05:44:59;;;;;;;32.47;21.17;;;11.10;99.90;;;;;;4991092;28;20176;-61
2022/03/17 05:47:24;;;;;;;34.92;22.17;;;11.00;99.90;;;;;;4990933;28;20538;-58
2022/03/17 05:49:50;;;;;;;36.60;24.17;;;10.90;99.90;;;;;;4990629;28;20037;-57
2022/03/17 05:52:15;;;;;;;35.97;24.98;;;10.90;99.90;;;;;;4991133;28;20110;-61
2022/03/17 05:54:41;;;;;;;35.17;23.92;;;10.80;99.90;;;;;;4990961;28;20026;-61
2022/03/17 05:57:09;;;;;;;40.70;26.00;;;10.70;99.90;;;;;;4973861;28;20113;-60
2022/03/17 05:59:39;;;;;;;38.38;26.05;;;10.60;99.90;;;;;;4991161;28;20026;-59
2022/03/17 06:02:05;;;;;;;40.80;25.17;;;10.50;99.90;;;;;;4990549;28;20045;-59
2022/03/17 06:04:31;;;;;;;39.22;26.60;;;10.30;99.90;;;;;;4991019;28;20084;-59
2022/03/17 06:06:56;;;;;;;41.35;26.98;;;10.30;99.90;;;;;;4991072;28;20033;-58
2022/03/17 06:09:22;;;;;;;40.17;27.13;;;10.10;99.90;;;;;;4990811;28;20451;-60
2022/03/17 06:11:48;;;;;;;45.75;29.25;;;10.10;99.90;;;;;;4991005;28;20054;-59
2022/03/17 06:14:13;;;;;;;46.58;33.83;;;10.00;99.90;;;;;;4990874;28;20100;-60
2022/03/17 06:16:39;;;;;;;44.85;34.40;;;9.90;99.90;;;;;;4973551;28;20026;-59
2022/03/17 06:19:04;;;;;;;44.97;35.58;;;9.90;99.90;;;;;;4990912;28;20030;-58
2022/03/17 06:21:30;;;;;;;45.53;36.20;;;9.90;99.90;;;;;;4990614;28;20030;-61
2022/03/17 06:23:55;;;;;;;46.40;38.25;;;9.90;99.90;;;;;;4973358;28;20088;-59
2022/03/17 06:26:21;;;;;;;47.95;35.95;;;9.90;99.90;;;;;;4991723;28;20026;-59
2022/03/17 06:28:46;;;;;;;48.10;37.22;;;9.90;99.90;;;;;;4976925;28;20356;-57
2022/03/17 06:31:12;;;;;;;48.75;36.45;;;9.90;99.90;;;;;;4977096;28;20026;-60
2022/03/17 06:33:38;;;;;;;49.83;37.55;;;9.90;99.90;;;;;;4976936;28;20054;-60
2022/03/17 06:36:04;;;;;;;52.58;37.92;;;9.90;99.90;;;;;;5021222;22;20425;-64
2022/03/17 06:38:30;;;;;;;50.78;39.80;;;9.90;99.90;;;;;;4998695;28;20499;-62
2022/03/17 06:40:55;;;;;;;54.80;41.15;;;9.90;99.90;;;;;;4997415;28;20054;-65
2022/03/17 06:43:21;;;;;;;51.13;38.97;;;9.90;99.90;;;;;;4997832;28;20088;-65
2022/03/17 06:45:47;;;;;;;53.20;41.10;;;9.90;99.90;;;;;;4997998;28;20056;-63
2022/03/17 06:48:12;;;;;;;55.08;42.00;;;9.80;99.90;;;;;;4997422;28;20045;-63
2022/03/17 06:50:38;;;;;;;57.97;40.42;;;9.80;99.90;;;;;;4997488;28;20106;-64
2022/03/17 06:56:27;;;;;;;59.13;42.47;;;9.80;99.90;;;;;;4985788;28;20029;-61
2022/03/17 06:58:53;;;;;;;58.83;41.13;;;9.90;99.90;;;;;;4997689;28;20026;-61
2022/03/17 07:01:18;;;;;;;54.97;42.58;;;9.80;99.90;;;;;;5015102;28;20030;-61
2022/03/17 07:03:44;;;;;;;56.50;43.42;;;9.80;99.90;;;;;;5015301;28;20470;-63
2022/03/17 07:06:09;;;;;;;62.22;44.40;;;9.80;99.90;;;;;;5015267;28;20123;-62
2022/03/17 07:08:35;;;;;;;56.20;41.78;;;9.80;99.90;;;;;;5015922;28;20037;-59
2022/03/17 07:11:01;;;;;;;59.75;44.08;;;9.80;99.90;;;;;;5015758;28;20432;-64
2022/03/17 07:13:26;;;;;;;62.85;43.88;;;9.70;99.90;;;;;;5016311;28;20513;-63
2022/03/17 07:15:52;;;;;;;53.03;41.00;;;9.70;99.90;;;;;;5016321;28;20105;-64
2022/03/17 07:18:17;;;;;;;58.85;41.20;;;9.70;99.90;;;;;;5015826;28;20065;-64
2022/03/17 07:20:43;;;;;;;55.33;39.45;;;9.70;99.90;;;;;;5014892;28;20101;-63
2022/03/17 07:23:08;;;;;;;48.83;36.47;;;9.70;99.90;;;;;;4996901;28;20021;-62
2022/03/17 07:25:34;;;;;;;46.22;35.08;;;9.60;99.90;;;;;;5015017;28;20042;-62
2022/03/17 07:28:00;;;;;;;39.83;32.25;;;9.60;99.90;;;;;;5015007;28;20030;-63
2022/03/17 07:30:26;;;;;;;37.13;30.38;;;9.50;99.90;;;;;;5014966;28;20084;-64
2022/03/17 07:32:55;;;;;;;32.85;27.45;;;9.50;99.90;;;;;;5015246;28;20034;-62
2022/03/17 07:35:22;;;;;;;31.05;25.08;;;9.40;99.90;;;;;;4997265;28;20056;-62
2022/03/17 07:37:49;;;;;;;30.58;25.77;;;9.30;99.90;;;;;;5014365;28;20034;-62
2022/03/17 07:40:15;;;;;;;28.77;25.55;;;9.30;99.90;;;;;;5014749;28;20022;-62
2022/03/17 07:42:41;;;;;;;29.30;23.95;;;9.20;99.90;;;;;;5014737;28;20402;-63
2022/03/17 07:45:06;;;;;;;28.05;23.42;;;9.10;99.90;;;;;;5014588;28;20033;-64
2022/03/17 07:47:33;;;;;;;24.75;20.85;;;9.00;99.90;;;;;;5014596;28;20030;-62
2022/03/17 07:50:01;;;;;;;25.75;20.50;;;8.90;99.90;;;;;;4996952;28;20056;-62
2022/03/17 07:52:27;;;;;;;26.02;19.10;;;8.90;99.90;;;;;;5013930;28;20096;-63
2022/03/17 07:54:52;;;;;;;26.38;19.15;;;8.80;99.90;;;;;;4996395;28;20065;-62
2022/03/17 07:57:18;;;;;;;26.38;18.00;;;8.80;99.90;;;;;;5014283;28;20029;-62
2022/03/17 07:59:44;;;;;;;26.95;17.30;;;8.80;99.90;;;;;;5014044;28;20018;-63
2022/03/17 08:02:09;;;;;;;26.83;19.40;;;8.80;99.90;;;;;;5014227;28;20026;-62
2022/03/17 08:04:36;;;;;;;24.70;17.17;;;8.80;99.90;;;;;;5013946;28;20050;-64
2022/03/17 08:07:03;;;;;;;23.42;17.23;;;8.80;99.90;;;;;;5013535;28;20406;-62
2022/03/17 08:09:29;;;;;;;24.33;16.70;;;8.80;99.90;;;;;;5014751;28;20052;-61
2022/03/17 08:11:56;;;;;;;23.90;16.27;;;8.80;99.90;;;;;;5014000;28;20109;-62
2022/03/17 08:14:21;;;;;;;24.88;17.48;;;8.80;99.90;;;;;;5013715;28;20109;-64
2022/03/17 08:16:47;;;;;;;22.20;15.20;;;8.80;99.90;;;;;;5013631;28;20110;-64
2022/03/17 08:19:13;;;;;;;23.08;15.68;;;8.80;99.90;;;;;;5013461;28;20084;-64
2022/03/17 08:21:40;;;;;;;25.65;16.33;;;8.80;99.90;;;;;;4996591;28;20034;-64
2022/03/17 08:24:07;;;;;;;23.88;15.30;;;8.80;99.90;;;;;;4996455;28;20026;-62
2022/03/17 08:26:33;;;;;;;25.77;15.50;;;8.80;99.90;;;;;;5013572;28;20494;-64
2022/03/17 08:28:59;;;;;;;22.75;14.40;;;8.80;99.90;;;;;;4995780;28;20038;-63
2022/03/17 08:31:25;;;;;;;28.25;15.63;;;8.80;99.90;;;;;;5013509;28;20026;-64
2022/03/17 08:33:50;;;;;;;25.40;14.93;;;8.80;99.90;;;;;;4995917;28;20022;-64
2022/03/17 08:36:16;;;;;;;21.85;14.45;;;8.80;99.90;;;;;;5013245;28;20061;-64
2022/03/17 08:38:42;;;;;;;25.13;16.58;;;8.80;99.90;;;;;;4995592;28;20512;-62
2022/03/17 08:41:07;;;;;;;21.73;12.95;;;8.80;99.90;;;;;;5012931;28;20072;-63
2022/03/17 08:43:33;;;;;;;22.35;13.60;;;8.80;99.90;;;;;;5013186;28;20022;-64
2022/03/17 08:51:28;;;;;;;23.38;12.95;;;8.60;99.90;;;;;;5003743;28;20163;-62
2022/03/17 08:53:56;;;;;;;21.85;11.50;;;8.60;99.90;;;;;;5007859;28;20049;-64
2022/03/17 08:56:22;;;;;;;23.25;12.23;;;8.60;99.90;;;;;;4994637;28;20026;-64
2022/03/17 08:58:48;;;;;;;20.55;12.95;;;8.70;99.90;;;;;;5010419;28;20044;-63
2022/03/17 09:01:13;;;;;;;22.02;10.98;;;8.80;99.90;;;;;;5012768;28;20113;-64
2022/03/17 09:03:39;;;;;;;22.85;12.13;;;8.80;99.90;;;;;;5012645;28;20028;-63
2022/03/17 09:06:04;;;;;;;21.10;11.38;;;8.90;99.90;;;;;;4994946;28;20742;-63
2022/03/17 09:08:30;;;;;;;18.13;10.35;;;9.00;99.90;;;;;;5007985;28;20018;-62
2022/03/17 09:10:57;;;;;;;17.33;9.18;;;9.00;99.90;;;;;;4993286;28;20097;-61
2022/03/17 09:13:26;;;;;;;19.45;9.70;;;8.90;99.90;;;;;;4992363;28;20034;-62
2022/03/17 09:15:53;;;;;;;18.13;9.15;;;8.90;99.90;;;;;;4992772;28;20023;-61
2022/03/17 09:18:20;;;;;;;18.05;9.50;;;8.90;99.90;;;;;;4647616;28;10000136;-62
2022/03/17 09:20:46;;;;;;;17.52;9.70;;;8.90;99.90;;;;;;5008670;28;20018;-62
2022/03/17 09:23:12;;;;;;;18.20;9.80;;;8.90;99.90;;;;;;4991965;28;20030;-63
2022/03/17 09:25:38;;;;;;;19.27;10.10;;;9.00;99.90;;;;;;4986689;28;20033;-67
2022/03/17 09:28:05;;;;;;;18.63;9.80;;;9.00;99.90;;;;;;4984141;28;20026;-67
2022/03/17 09:30:31;;;;;;;18.48;9.35;;;9.00;99.90;;;;;;4992038;28;20037;-69
2022/03/17 09:32:59;;;;;;;17.00;9.05;;;8.90;99.90;;;;;;4992087;28;20033;-67
2022/03/17 09:35:25;;;;;;;20.17;9.45;;;8.90;99.90;;;;;;5007439;28;20025;-65
2022/03/17 09:37:51;;;;;;;17.17;9.05;;;9.00;99.90;;;;;;4990492;28;20027;-65
2022/03/17 09:40:17;;;;;;;17.25;8.60;;;9.00;99.90;;;;;;4972838;28;20494;-65
2022/03/17 09:42:43;;;;;;;19.50;9.60;;;9.00;99.90;;;;;;4972682;28;20104;-66
2022/03/17 09:45:11;;;;;;;15.60;8.07;;;9.00;99.90;;;;;;5000439;28;20074;-65
2022/03/17 09:47:41;;;;;;;20.27;8.35;;;9.00;99.90;;;;;;5003927;28;20014;-63
2022/03/17 09:50:09;;;;;;;15.95;7.82;;;9.10;99.90;;;;;;4997693;28;20022;-64
2022/03/17 09:52:41;;;;;;;17.30;7.30;;;9.00;99.90;;;;;;4996986;28;20119;-64
2022/03/17 09:55:12;;;;;;;15.60;6.75;;;8.90;99.90;;;;;;4993214;28;20558;-66
2022/03/17 09:57:41;;;;;;;18.65;7.30;;;8.80;99.90;;;;;;5000346;28;20034;-63
2022/03/17 10:00:09;;;;;;;16.50;7.00;;;8.80;99.90;;;;;;4984714;28;20117;-65
2022/03/17 10:02:35;;;;;;;17.73;6.63;;;8.90;99.90;;;;;;4983855;28;20029;-66
2022/03/17 10:05:01;;;;;;;14.77;6.88;;;9.00;99.90;;;;;;5002611;28;20105;-66
2022/03/17 10:07:27;;;;;;;14.98;6.50;;;9.00;99.90;;;;;;5003961;28;20175;-66
2022/03/17 10:09:52;;;;;;;11.43;5.85;;;9.10;99.90;;;;;;5003869;28;20026;-65
2022/03/17 10:12:23;;;;;;;15.57;6.85;;;9.20;99.90;;;;;;5000958;28;20406;-65
2022/03/17 10:14:55;;;;;;;14.25;6.63;;;9.30;99.90;;;;;;5003568;28;20386;-65
2022/03/17 10:17:28;;;;;;;15.75;6.97;;;9.50;99.90;;;;;;5001795;28;20426;-66
2022/03/17 10:20:28;;;;;;;11.45;6.50;;;9.60;99.90;;;;;;4983591;28;20033;-65
2022/03/17 10:22:56;;;;;;;13.68;6.55;;;9.60;99.90;;;;;;5001176;28;20045;-65
2022/03/17 10:25:27;;;;;;;12.50;6.30;;;9.60;99.90;;;;;;5001703;28;20027;-65
2022/03/17 10:27:56;;;;;;;15.75;6.50;;;9.40;99.90;;;;;;4998823;28;20034;-65
2022/03/17 10:30:34;;;;;;;14.00;7.30;;;9.30;99.90;;;;;;4995361;28;20053;-66
2022/03/17 10:33:03;;;;;;;14.73;6.32;;;9.30;99.90;;;;;;5013275;28;20022;-65
2022/03/17 10:35:34;;;;;;;13.43;6.22;;;9.20;99.90;;;;;;5012944;28;20034;-66
2022/03/17 10:38:22;;;;;;;12.63;6.18;;;9.40;99.90;;;;;;5009829;28;20046;-66
2022/03/17 10:41:02;;;;;;;14.63;6.90;;;9.20;99.90;;;;;;4980932;28;20037;-66
2022/03/17 10:43:29;;;;;;;13.98;6.65;;;9.20;99.90;;;;;;4986621;28;20249;-65
2022/03/17 10:46:20;;;;;;;16.65;6.57;;;9.10;99.90;;;;;;5001119;28;20545;-65
2022/03/17 10:48:57;;;;;;;17.83;6.70;;;9.00;99.90;;;;;;5006647;28;20029;-64
2022/03/17 10:51:37;;;;;;;15.00;6.57;;;8.90;99.90;;;;;;5013060;28;20564;-66
2022/03/17 10:54:07;;;;;;;13.48;6.65;;;9.00;99.90;;;;;;5012871;28;20032;-66
2022/03/17 10:56:35;;;;;;;19.13;6.75;;;9.20;99.90;;;;;;4994601;28;20082;-65
2022/03/17 10:59:00;;;;;;;13.48;6.78;;;9.20;99.90;;;;;;5013967;28;20048;-68
2022/03/17 11:01:43;;;;;;;16.08;6.72;;;9.40;99.90;;;;;;5013252;28;20510;-68
2022/03/17 11:04:10;;;;;;;15.02;6.82;;;9.40;99.90;;;;;;5015110;28;20081;-68
2022/03/17 11:06:38;;;;;;;24.98;6.82;;;9.20;99.90;;;;;;5015110;28;20026;-67
2022/03/17 11:09:05;;;;;;;14.98;6.60;;;9.10;99.90;;;;;;4997110;28;20053;-67
2022/03/17 11:11:31;;;;;;;18.95;7.03;;;9.00;99.90;;;;;;4996929;28;20088;-65
2022/03/17 11:14:00;;;;;;;14.98;7.20;;;9.10;99.90;;;;;;5014645;28;20018;-65
2022/03/17 11:16:50;;;;;;;16.00;6.63;;;9.20;99.90;;;;;;5014996;28;20105;-66
2022/03/17 11:19:20;;;;;;;15.60;6.65;;;9.30;99.90;;;;;;5015899;28;20394;-67
2022/03/17 11:21:50;;;;;;;15.27;6.90;;;9.40;99.90;;;;;;5014479;28;20462;-66
2022/03/17 11:24:21;;;;;;;15.07;6.43;;;9.50;99.90;;;;;;5015179;28;20022;-68
2022/03/17 11:26:46;;;;;;;17.83;6.82;;;9.50;99.90;;;;;;5014760;28;20502;-67
2022/03/17 11:29:13;;;;;;;18.55;7.15;;;9.50;99.90;;;;;;4996948;28;20033;-67
2022/03/17 11:31:58;;;;;;;17.67;7.10;;;9.70;99.90;;;;;;4996900;28;20026;-67
2022/03/17 11:34:47;;;;;;;18.38;7.30;;;9.80;99.90;;;;;;5015033;28;20018;-67
2022/03/17 11:37:19;;;;;;;16.80;7.07;;;10.10;99.90;;;;;;5014601;28;20057;-68
2022/03/17 11:39:58;;;;;;;18.55;7.50;;;10.10;99.90;;;;;;4997175;28;20049;-68
2022/03/17 11:42:34;;;;;;;15.52;7.25;;;10.00;99.90;;;;;;5014572;28;20029;-69
2022/03/17 11:45:15;;;;;;;16.98;8.13;;;10.10;99.90;;;;;;4996541;28;20026;-68
2022/03/17 11:47:50;;;;;;;20.38;7.43;;;10.10;99.90;;;;;;5014471;28;20032;-65
2022/03/17 11:50:27;;;;;;;16.30;7.45;;;10.00;99.90;;;;;;5014271;28;20034;-67
2022/03/17 11:53:01;;;;;;;24.40;8.27;;;10.00;99.90;;;;;;5014019;28;20022;-67
2022/03/17 11:55:34;;;;;;;22.10;7.57;;;10.00;99.90;;;;;;4996709;28;20030;-67
2022/03/17 11:58:25;;;;;;;15.98;7.25;;;10.20;99.90;;;;;;4996359;28;20050;-67
2022/03/17 12:01:11;;;;;;;20.75;7.22;;;10.40;99.90;;;;;;5013888;28;20018;-67
2022/03/17 12:03:37;;;;;;;16.35;6.85;;;10.40;99.90;;;;;;5013938;28;20025;-67
2022/03/17 12:06:20;;;;;;;17.35;7.35;;;10.20;99.90;;;;;;5014114;28;20014;-66
2022/03/17 12:09:00;;;;;;;17.42;7.88;;;10.30;99.90;;;;;;5013383;28;20030;-65
2022/03/17 12:11:31;;;;;;;21.67;7.68;;;10.10;99.90;;;;;;5014276;28;20156;-67
2022/03/17 12:14:14;;;;;;;17.27;6.88;;;10.00;99.90;;;;;;5013720;28;20060;-67
2022/03/17 12:16:51;;;;;;;17.10;6.72;;;9.90;99.90;;;;;;5014167;28;20029;-67
2022/03/17 12:20:11;;;;;;;15.68;7.03;;;10.10;99.90;;;;;;5013718;28;20110;-66
2022/03/17 12:22:43;;;;;;;23.52;7.82;;;10.00;99.90;;;;;;4956846;28;20556;-67
2022/03/17 12:25:16;;;;;;;24.77;8.55;;;10.10;99.90;;;;;;4955239;28;20121;-64
2022/03/17 12:27:43;;;;;;;18.65;7.50;;;10.10;99.90;;;;;;5000550;28;20030;-65
2022/03/17 12:30:14;;;;;;;16.08;7.22;;;10.10;99.90;;;;;;5014977;28;20025;-62
2022/03/17 12:32:45;;;;;;;19.13;6.95;;;10.10;99.90;;;;;;5014397;28;20026;-64
2022/03/17 12:35:19;;;;;;;17.48;7.63;;;10.10;99.90;;;;;;5015235;28;20022;-59
2022/03/17 12:37:44;;;;;;;23.65;7.38;;;10.30;99.90;;;;;;5015097;28;20402;-64
2022/03/17 12:40:20;;;;;;;16.73;7.20;;;10.40;99.90;;;;;;5014978;28;20018;-64
2022/03/17 12:42:53;;;;;;;17.13;7.97;;;10.60;99.90;;;;;;4996520;28;20030;-61
2022/03/17 12:45:21;;;;;;;16.88;8.55;;;10.60;99.90;;;;;;5013454;28;20034;-65
2022/03/17 12:47:52;;;;;;;20.23;9.20;;;10.60;99.90;;;;;;4995950;28;20025;-61
2022/03/17 12:50:20;;;;;;;17.83;9.02;;;10.70;99.90;;;;;;5013394;28;20112;-63
2022/03/17 12:52:47;;;;;;;24.35;9.93;;;10.70;99.90;;;;;;5013301;28;20483;-58
2022/03/17 12:55:15;;;;;;;18.40;10.03;;;10.50;99.90;;;;;;4996004;28;20487;-62
2022/03/17 12:57:42;;;;;;;17.33;7.97;;;10.80;99.90;;;;;;4320952;28;9999891;-63
2022/03/17 13:00:10;;;;;;;43.42;30.27;;;10.80;99.90;;;;;;5011533;28;20364;-64
2022/03/17 13:02:36;;;;;;;18.20;9.82;;;10.60;99.90;;;;;;5011742;28;20026;-67
2022/03/17 13:06:53;;;;;;;18.42;7.90;;;10.60;99.90;;;;;;4994806;28;20581;-66
2022/03/17 13:07:50;;;;;;;17.60;7.53;;;10.60;99.90;;;;;;4996165;28;20033;-62
2022/03/17 13:10:17;;;;;;;15.93;7.28;;;10.40;99.90;;;;;;5012587;28;20056;-61
2022/03/17 13:15:28;;;;;;;19.65;8.27;;;10.50;99.90;;;;;;5012736;28;20084;-60
2022/03/17 13:18:04;;;;;;;17.23;8.00;;;10.60;99.90;;;;;;4995429;28;20467;-62